Time;durP1;ratioP1;P1;durP2;ratioP2;P2;SDS_P1;SDS_P2;PMS_P1;PMS_P2;Temp;Humidity;BMP_temperature;BMP_pressure;BME280_temperature;BME280_humidity;BME280_pressure;Samples;Min_cycle;Max_cycle;Signal;HPM_P1;HPM_P2
2023/04/16 10:27:49;;;;;;;;;;;18.90;51.40;;;;;;6269097;22;19966;-75
2023/04/16 10:30:16;;;;;;;;;;;18.90;51.10;;;;;;6276316;22;19911;-75
2023/04/16 10:32:43;;;;;;;;;;;18.90;52.30;;;;;;6250030;22;20266;-75
2023/04/16 10:35:14;;;;;;;;;;;19.00;51.10;;;;;;6249447;22;19904;-75
2023/04/16 10:37:41;;;;;;;;;;;18.90;52.00;;;;;;6275834;22;19934;-75
2023/04/16 10:40:23;;;;;;;;;;;18.90;51.70;;;;;;6276914;22;19912;-75
2023/04/16 10:42:54;;;;;;;;;;;18.90;51.10;;;;;;6276935;22;19903;-75
2023/04/16 10:45:25;;;;;;;;;;;18.90;53.30;;;;;;6275445;22;19903;-75
2023/04/16 10:47:55;;;;;;;;;;;18.80;53.90;;;;;;6274655;22;19903;-75
2023/04/16 10:50:22;;;;;;;;;;;18.80;53.30;;;;;;6276431;22;19939;-75
2023/04/16 10:52:49;;;;;;;;;;;18.80;53.90;;;;;;6276505;22;19907;-75
2023/04/16 10:55:19;;;;;;;;;;;18.80;51.90;;;;;;6249877;22;20410;-75
2023/04/16 10:57:48;;;;;;;;;;;18.80;53.10;;;;;;6276066;22;19904;-75
2023/04/16 11:00:22;;;;;;;;;;;18.70;52.00;;;;;;6276495;22;20254;-75
2023/04/16 11:02:52;;;;;;;;;;;18.70;53.00;;;;;;6275963;22;20002;-75
2023/04/16 11:05:21;;;;;;;;;;;18.70;54.40;;;;;;6249116;22;19917;-75
2023/04/16 11:07:48;;;;;;;;;;;18.70;54.30;;;;;;6275516;22;19907;-75
2023/04/16 11:10:15;;;;;;;;;;;18.70;53.90;;;;;;6276062;22;19903;-75
2023/04/16 11:12:43;;;;;;;;;;;18.70;53.60;;;;;;6276659;22;19910;-75
2023/04/16 11:15:18;;;;;;;;;;;18.60;53.70;;;;;;6276272;22;19904;-75
2023/04/16 11:17:45;;;;;;;;;;;18.60;55.10;;;;;;6274778;22;19903;-75
2023/04/16 11:20:15;;;;;;;;;;;18.70;55.40;;;;;;6275930;22;19994;-75
2023/04/16 11:22:42;;;;;;;;;;;18.60;54.60;;;;;;6275533;22;19931;-75
2023/04/16 11:25:09;;;;;;;;;;;18.60;53.40;;;;;;6275703;22;19942;-75
2023/04/16 11:27:35;;;;;;;;;;;18.60;54.50;;;;;;6273579;22;20259;-75
2023/04/16 11:30:03;;;;;;;;;;;18.50;54.10;;;;;;6246089;23;20220;-75
2023/04/16 11:32:33;;;;;;;;;;;18.40;55.00;;;;;;6245800;23;20238;-75
2023/04/16 11:35:03;;;;;;;;;;;18.40;57.20;;;;;;6245494;23;19990;-75
2023/04/16 11:37:33;;;;;;;;;;;18.40;55.90;;;;;;6218330;23;19904;-74
2023/04/16 11:40:00;;;;;;;;;;;18.40;55.10;;;;;;6244704;23;20273;-75
2023/04/16 11:42:27;;;;;;;;;;;18.40;56.30;;;;;;6244489;23;19903;-75
2023/04/16 11:44:54;;;;;;;;;;;18.40;54.70;;;;;;6245421;23;19903;-75
2023/04/16 11:47:21;;;;;;;;;;;18.40;54.20;;;;;;6245073;22;19903;-75
2023/04/16 11:49:48;;;;;;;;;;;18.30;54.70;;;;;;6218587;23;19915;-76
2023/04/16 11:52:26;;;;;;;;;;;18.30;54.10;;;;;;6218999;23;19910;-75
2023/04/16 11:54:52;;;;;;;;;;;18.30;55.70;;;;;;6219200;23;19987;-75
2023/04/16 11:57:29;;;;;;;;;;;18.20;55.80;;;;;;6244928;22;19908;-75
2023/04/16 11:59:56;;;;;;;;;;;18.20;56.20;;;;;;6245076;23;20442;-75
2023/04/16 12:02:35;;;;;;;;;;;18.20;55.60;;;;;;6245258;23;19903;-75
2023/04/16 12:05:03;;;;;;;;;;;18.20;56.00;;;;;;6245265;23;20385;-75
2023/04/16 12:07:30;;;;;;;;;;;18.20;55.10;;;;;;6244778;22;19910;-75
2023/04/16 12:10:06;;;;;;;;;;;18.20;56.20;;;;;;6245005;23;20381;-75
2023/04/16 12:12:34;;;;;;;;;;;18.10;57.10;;;;;;6244266;23;19904;-74
2023/04/16 12:15:04;;;;;;;;;;;18.10;56.00;;;;;;6245172;23;19904;-75
2023/04/16 12:17:31;;;;;;;;;;;18.10;55.90;;;;;;6244952;22;20307;-75
2023/04/16 12:19:59;;;;;;;;;;;18.10;56.60;;;;;;6244298;23;19994;-75
2023/04/16 12:22:26;;;;;;;;;;;18.00;56.80;;;;;;6245205;23;20416;-75
2023/04/16 12:24:59;;;;;;;;;;;18.00;56.60;;;;;;6244794;23;20318;-75
2023/04/16 12:27:27;;;;;;;;;;;18.00;56.90;;;;;;6244576;22;19908;-74
2023/04/16 12:30:03;;;;;;;;;;;17.90;57.20;;;;;;6245064;23;20326;-75
2023/04/16 12:32:30;;;;;;;;;;;17.90;56.90;;;;;;6244928;23;19935;-75
2023/04/16 12:34:57;;;;;;;;;;;17.90;57.10;;;;;;6244973;23;20295;-75
2023/04/16 12:37:23;;;;;;;;;;;17.90;58.70;;;;;;6245315;22;19908;-75
2023/04/16 12:39:50;;;;;;;;;;;17.80;58.00;;;;;;6245077;23;20358;-75
2023/04/16 12:42:17;;;;;;;;;;;17.70;58.50;;;;;;6245025;23;19904;-75
2023/04/16 12:44:44;;;;;;;;;;;17.70;58.60;;;;;;6245090;23;19978;-74
2023/04/16 12:47:10;;;;;;;;;;;17.70;57.80;;;;;;6244920;22;19903;-74
2023/04/16 12:49:37;;;;;;;;;;;17.70;58.10;;;;;;6245164;23;19904;-74
2023/04/16 12:52:05;;;;;;;;;;;17.70;58.60;;;;;;6244834;23;19910;-75
2023/04/16 12:54:31;;;;;;;;;;;17.70;58.30;;;;;;6244915;23;19927;-74
2023/04/16 12:56:58;;;;;;;;;;;17.70;58.50;;;;;;6244952;22;19904;-75
2023/04/16 12:59:25;;;;;;;;;;;17.70;58.50;;;;;;6245400;23;19907;-74
2023/04/16 13:01:51;;;;;;;;;;;17.70;59.10;;;;;;6244857;23;19907;-75
2023/04/16 13:04:18;;;;;;;;;;;17.70;59.90;;;;;;6244909;23;19918;-75
2023/04/16 13:06:45;;;;;;;;;;;17.70;59.90;;;;;;6245299;22;19907;-75
2023/04/16 13:09:12;;;;;;;;;;;17.60;59.90;;;;;;6245349;23;19934;-74
2023/04/16 13:11:38;;;;;;;;;;;17.60;59.80;;;;;;6244908;23;20430;-75
2023/04/16 13:14:05;;;;;;;;;;;17.50;60.60;;;;;;6243925;23;19904;-74
2023/04/16 13:16:32;;;;;;;;;;;17.50;60.20;;;;;;6244626;22;19904;-74
2023/04/16 13:18:58;;;;;;;;;;;17.50;59.80;;;;;;6245052;23;20219;-75
2023/04/16 13:21:26;;;;;;;;;;;17.50;60.20;;;;;;6244535;23;19966;-75
2023/04/16 13:23:52;;;;;;;;;;;17.50;60.10;;;;;;6244456;23;19931;-75
2023/04/16 13:26:19;;;;;;;;;;;17.40;61.00;;;;;;6218026;23;20324;-74
2023/04/16 13:28:46;;;;;;;;;;;17.50;60.50;;;;;;6262200;22;19919;-75
2023/04/16 13:31:14;;;;;;;;;;;17.40;61.30;;;;;;6275622;22;20266;-74
2023/04/16 13:33:41;;;;;;;;;;;17.30;61.00;;;;;;6248459;22;20234;-74
2023/04/16 13:36:07;;;;;;;;;;;17.30;61.10;;;;;;6275358;22;19972;-74
2023/04/16 13:38:34;;;;;;;;;;;17.30;61.20;;;;;;6275351;22;19979;-75
2023/04/16 13:41:01;;;;;;;;;;;17.30;61.40;;;;;;6274870;22;19912;-75
2023/04/16 13:43:28;;;;;;;;;;;17.30;61.60;;;;;;6275110;22;19903;-75
2023/04/16 13:45:54;;;;;;;;;;;17.20;61.40;;;;;;6276221;22;19910;-74
2023/04/16 13:48:21;;;;;;;;;;;17.20;62.20;;;;;;6277485;22;19903;-74
2023/04/16 13:50:48;;;;;;;;;;;17.20;61.90;;;;;;6277128;22;19903;-74
2023/04/16 13:53:15;;;;;;;;;;;17.20;62.10;;;;;;6277201;22;19903;-74
2023/04/16 13:55:41;;;;;;;;;;;17.20;62.40;;;;;;6277066;22;19994;-74
2023/04/16 13:58:09;;;;;;;;;;;17.10;62.50;;;;;;6249987;22;20334;-75
2023/04/16 14:00:36;;;;;;;;;;;17.10;62.50;;;;;;6250429;22;19942;-74
2023/04/16 14:03:04;;;;;;;;;;;17.10;62.60;;;;;;6276824;22;19910;-74
2023/04/16 14:05:31;;;;;;;;;;;17.10;62.10;;;;;;6277162;22;19914;-74
2023/04/16 14:07:58;;;;;;;;;;;17.10;62.30;;;;;;6276236;22;19970;-74
2023/04/16 14:10:25;;;;;;;;;;;17.00;62.70;;;;;;6276873;22;19912;-74
2023/04/16 14:12:52;;;;;;;;;;;17.00;63.20;;;;;;6276875;22;20636;-75
2023/04/16 14:15:19;;;;;;;;;;;17.00;63.20;;;;;;6249883;22;19908;-74
2023/04/16 14:17:46;;;;;;;;;;;17.00;63.50;;;;;;6276522;22;19908;-74
2023/04/16 14:20:13;;;;;;;;;;;17.00;64.30;;;;;;6276994;22;19917;-74
2023/04/16 14:22:41;;;;;;;;;;;17.00;64.10;;;;;;6276420;22;19904;-75
2023/04/16 14:25:08;;;;;;;;;;;16.90;64.20;;;;;;6250428;22;19903;-74
2023/04/16 14:27:34;;;;;;;;;;;16.90;63.80;;;;;;6276431;22;19953;-74
2023/04/16 14:30:01;;;;;;;;;;;16.90;63.80;;;;;;6276925;22;20326;-74
2023/04/16 14:32:29;;;;;;;;;;;16.90;63.90;;;;;;6276675;22;19903;-74
2023/04/16 14:34:56;;;;;;;;;;;16.80;64.10;;;;;;6276643;22;19903;-74
2023/04/16 14:37:23;;;;;;;;;;;16.80;64.60;;;;;;6276906;22;19983;-74
2023/04/16 14:39:49;;;;;;;;;;;16.80;64.10;;;;;;6276502;22;19919;-74
2023/04/16 14:42:16;;;;;;;;;;;16.80;63.90;;;;;;6276819;22;20078;-74
2023/04/16 14:44:43;;;;;;;;;;;16.80;63.80;;;;;;6276705;22;20681;-74
2023/04/16 14:47:10;;;;;;;;;;;16.80;64.40;;;;;;6276625;22;19982;-74
2023/04/16 14:49:37;;;;;;;;;;;16.80;64.80;;;;;;6277026;22;19910;-74
2023/04/16 14:52:04;;;;;;;;;;;16.70;65.40;;;;;;6276588;22;20544;-74
2023/04/16 14:54:32;;;;;;;;;;;16.70;65.70;;;;;;6276295;22;19965;-74
2023/04/16 14:56:58;;;;;;;;;;;16.70;65.60;;;;;;6276367;22;20242;-74
2023/04/16 14:59:25;;;;;;;;;;;16.60;65.50;;;;;;6276860;22;19907;-74
2023/04/16 15:01:52;;;;;;;;;;;16.60;65.40;;;;;;6275583;22;19981;-73
2023/04/16 15:04:18;;;;;;;;;;;16.60;65.60;;;;;;6249846;22;19931;-74
2023/04/16 15:06:45;;;;;;;;;;;16.60;66.30;;;;;;6276170;22;19990;-74
2023/04/16 15:09:12;;;;;;;;;;;16.50;66.40;;;;;;6276463;22;19913;-74
2023/04/16 15:11:39;;;;;;;;;;;16.50;66.40;;;;;;6276234;22;19910;-73
2023/04/16 15:14:05;;;;;;;;;;;16.40;66.60;;;;;;6276060;22;19949;-74
2023/04/16 15:16:32;;;;;;;;;;;16.40;66.70;;;;;;6275955;22;19910;-73
2023/04/16 15:18:59;;;;;;;;;;;16.40;66.40;;;;;;6249607;22;20349;-74
2023/04/16 15:21:26;;;;;;;;;;;16.40;66.30;;;;;;6276743;22;20336;-73
2023/04/16 15:23:53;;;;;;;;;;;16.40;67.50;;;;;;6276029;22;19904;-74
2023/04/16 15:26:20;;;;;;;;;;;16.40;67.00;;;;;;6275748;22;19907;-73
2023/04/16 15:28:46;;;;;;;;;;;16.40;67.50;;;;;;6276144;22;19919;-74
2023/04/16 15:31:13;;;;;;;;;;;16.40;68.10;;;;;;6274900;22;20337;-73
2023/04/16 15:33:40;;;;;;;;;;;16.30;67.80;;;;;;6249047;22;19904;-73
2023/04/16 15:36:07;;;;;;;;;;;16.20;68.00;;;;;;6276169;22;19910;-74
2023/04/16 15:38:33;;;;;;;;;;;16.20;67.70;;;;;;6276210;22;19903;-74
2023/04/16 15:41:00;;;;;;;;;;;16.20;67.90;;;;;;6275146;22;19911;-73
2023/04/16 15:43:28;;;;;;;;;;;16.20;67.80;;;;;;6275792;22;19931;-74
2023/04/16 15:45:56;;;;;;;;;;;16.20;69.20;;;;;;6276146;22;19910;-74
2023/04/16 15:48:23;;;;;;;;;;;16.20;68.20;;;;;;6249625;22;19904;-74
2023/04/16 15:50:50;;;;;;;;;;;16.20;68.70;;;;;;6248818;22;19903;-74
2023/04/16 15:53:16;;;;;;;;;;;16.10;68.30;;;;;;6275802;22;19926;-73
2023/04/16 15:55:43;;;;;;;;;;;16.10;69.00;;;;;;6248316;22;20348;-73
2023/04/16 15:58:10;;;;;;;;;;;16.10;68.30;;;;;;6275587;22;19935;-74
2023/04/16 16:00:37;;;;;;;;;;;15.90;69.20;;;;;;6276323;22;19919;-74
2023/04/16 16:03:03;;;;;;;;;;;15.90;69.30;;;;;;6276075;22;19903;-74
2023/04/16 16:05:30;;;;;;;;;;;15.90;70.20;;;;;;6276299;22;19907;-74
2023/04/16 16:07:57;;;;;;;;;;;15.90;70.00;;;;;;6275135;22;19910;-74
2023/04/16 16:10:24;;;;;;;;;;;15.80;70.10;;;;;;6248859;22;19907;-74
2023/04/16 16:12:50;;;;;;;;;;;15.70;69.80;;;;;;6275566;22;19907;-74
2023/04/16 16:15:17;;;;;;;;;;;15.70;69.50;;;;;;6276013;22;19907;-74
2023/04/16 16:17:44;;;;;;;;;;;15.70;69.70;;;;;;6275835;22;19931;-73
2023/04/16 16:20:11;;;;;;;;;;;15.80;69.70;;;;;;6275554;22;20367;-73
2023/04/16 16:22:39;;;;;;;;;;;15.80;69.50;;;;;;6276396;22;19945;-74
2023/04/16 16:25:06;;;;;;;;;;;15.80;69.10;;;;;;6276121;22;19989;-74
2023/04/16 16:27:33;;;;;;;;;;;15.80;69.00;;;;;;6248851;22;19903;-73
2023/04/16 16:30:00;;;;;;;;;;;15.80;70.50;;;;;;6275074;22;19915;-73
2023/04/16 16:32:26;;;;;;;;;;;15.80;69.30;;;;;;6275691;22;19910;-73
2023/04/16 16:34:53;;;;;;;;;;;15.80;69.20;;;;;;6275583;22;19989;-73
2023/04/16 16:37:20;;;;;;;;;;;15.80;69.00;;;;;;6275292;22;19953;-73
2023/04/16 16:39:46;;;;;;;;;;;15.80;69.80;;;;;;6275606;22;20010;-74
2023/04/16 16:42:17;;;;;;;;;;;15.80;69.00;;;;;;6275613;22;19911;-74
2023/04/16 16:44:46;;;;;;;;;;;15.80;69.50;;;;;;6275664;22;20314;-74
2023/04/16 16:47:12;;;;;;;;;;;15.80;69.20;;;;;;6275077;22;19904;-73
2023/04/16 16:49:39;;;;;;;;;;;15.80;69.10;;;;;;6274972;22;19903;-73
2023/04/16 16:52:06;;;;;;;;;;;15.70;70.20;;;;;;6275985;22;19904;-73
2023/04/16 16:54:32;;;;;;;;;;;15.70;70.10;;;;;;6275603;22;19904;-73
2023/04/16 16:57:01;;;;;;;;;;;15.70;70.40;;;;;;6274831;22;19965;-72
2023/04/16 16:59:27;;;;;;;;;;;15.70;70.30;;;;;;6275042;22;19903;-73
2023/04/16 17:01:54;;;;;;;;;;;15.70;70.20;;;;;;6275765;22;19915;-73
2023/04/16 17:04:21;;;;;;;;;;;15.70;70.40;;;;;;6275614;22;19986;-73
2023/04/16 17:06:48;;;;;;;;;;;15.70;69.80;;;;;;6275173;22;19907;-73
2023/04/16 17:09:15;;;;;;;;;;;15.70;70.00;;;;;;6275050;22;19907;-73
2023/04/16 17:11:42;;;;;;;;;;;15.70;69.90;;;;;;6275763;22;19909;-73
2023/04/16 17:14:09;;;;;;;;;;;15.70;70.00;;;;;;6275769;22;19965;-73
2023/04/16 17:16:35;;;;;;;;;;;15.70;70.20;;;;;;6275428;22;20246;-73
2023/04/16 17:19:02;;;;;;;;;;;15.70;70.50;;;;;;6275113;22;19903;-74
2023/04/16 17:21:31;;;;;;;;;;;15.70;70.70;;;;;;6277455;22;20273;-73
2023/04/16 17:23:58;;;;;;;;;;;15.70;70.90;;;;;;6277792;22;19903;-73
2023/04/16 17:26:24;;;;;;;;;;;15.70;70.60;;;;;;6277122;22;20469;-73
2023/04/16 17:28:52;;;;;;;;;;;15.70;71.00;;;;;;6277074;22;20010;-74
2023/04/16 17:31:18;;;;;;;;;;;15.70;70.80;;;;;;6277373;22;19986;-73
2023/04/16 17:33:45;;;;;;;;;;;15.70;71.50;;;;;;6277243;22;20235;-74
2023/04/16 17:36:12;;;;;;;;;;;15.60;71.40;;;;;;6276963;22;19903;-73
2023/04/16 17:38:38;;;;;;;;;;;15.60;71.70;;;;;;6277178;22;20242;-73
2023/04/16 17:41:05;;;;;;;;;;;15.60;71.50;;;;;;6277192;22;19915;-73
2023/04/16 17:43:32;;;;;;;;;;;15.60;71.60;;;;;;6275949;22;20234;-72
2023/04/16 17:45:58;;;;;;;;;;;15.50;71.70;;;;;;6277311;22;19915;-74
2023/04/16 17:48:25;;;;;;;;;;;15.50;71.70;;;;;;6276382;22;19922;-73
2023/04/16 17:50:52;;;;;;;;;;;15.50;71.30;;;;;;6276964;22;19903;-75
2023/04/16 17:53:19;;;;;;;;;;;15.50;71.10;;;;;;6276646;22;20277;-74
2023/04/16 17:55:52;;;;;;;;;;;15.50;71.70;;;;;;6277034;22;19903;-74
2023/04/16 17:58:18;;;;;;;;;;;15.50;71.20;;;;;;6276874;22;19907;-74
2023/04/16 18:00:45;;;;;;;;;;;15.40;71.40;;;;;;6249347;22;20318;-74
2023/04/16 18:03:13;;;;;;;;;;;15.40;71.20;;;;;;6277104;22;19938;-74
2023/04/16 18:05:40;;;;;;;;;;;15.40;71.90;;;;;;6276757;22;19910;-74
2023/04/16 18:08:06;;;;;;;;;;;15.40;71.30;;;;;;6276130;22;20322;-74
2023/04/16 18:10:33;;;;;;;;;;;15.40;72.00;;;;;;6274564;22;19914;-74
2023/04/16 18:13:00;;;;;;;;;;;15.30;72.50;;;;;;6276585;22;19995;-74
2023/04/16 18:15:27;;;;;;;;;;;15.30;72.60;;;;;;6276601;22;19907;-74
2023/04/16 18:17:53;;;;;;;;;;;15.30;73.30;;;;;;6276239;22;20215;-74
2023/04/16 18:20:20;;;;;;;;;;;15.20;73.80;;;;;;6249211;22;19918;-74
2023/04/16 18:22:47;;;;;;;;;;;15.20;73.50;;;;;;6276326;22;19908;-74
2023/04/16 18:25:13;;;;;;;;;;;15.20;72.90;;;;;;6276555;22;19911;-74
2023/04/16 18:27:40;;;;;;;;;;;15.20;73.00;;;;;;6276316;22;19918;-74
2023/04/16 18:30:07;;;;;;;;;;;15.20;73.10;;;;;;6276764;22;19915;-73
2023/04/16 18:32:34;;;;;;;;;;;15.20;73.80;;;;;;6275156;22;19910;-74
2023/04/16 18:35:01;;;;;;;;;;;15.10;74.10;;;;;;6276186;22;20446;-74
2023/04/16 18:37:27;;;;;;;;;;;15.10;73.40;;;;;;6275725;22;19904;-74
2023/04/16 18:39:54;;;;;;;;;;;15.00;72.90;;;;;;6277203;22;20369;-74
2023/04/16 18:42:22;;;;;;;;;;;15.10;73.10;;;;;;6276474;22;19903;-74
2023/04/16 18:44:52;;;;;;;;;;;15.10;73.50;;;;;;6276664;22;19907;-74
2023/04/16 18:47:18;;;;;;;;;;;15.00;72.60;;;;;;6276720;22;19908;-72
2023/04/16 18:49:45;;;;;;;;;;;15.10;72.90;;;;;;6276950;22;19903;-75
2023/04/16 18:52:12;;;;;;;;;;;15.10;72.50;;;;;;6275811;22;19914;-75
2023/04/16 18:54:39;;;;;;;;;;;15.20;72.60;;;;;;6275885;22;20242;-74
2023/04/16 18:57:06;;;;;;;;;;;15.10;73.60;;;;;;6276152;22;19914;-74
2023/04/16 18:59:33;;;;;;;;;;;15.00;73.30;;;;;;6277195;22;20269;-74
2023/04/16 19:01:59;;;;;;;;;;;15.10;72.80;;;;;;6276455;22;19908;-74
2023/04/16 19:04:26;;;;;;;;;;;15.10;72.30;;;;;;6248630;22;19903;-74
2023/04/16 19:06:53;;;;;;;;;;;15.20;72.90;;;;;;6249422;22;20318;-74
2023/04/16 19:09:19;;;;;;;;;;;15.10;72.60;;;;;;6276907;22;19943;-75
2023/04/16 20:31:51;;;;;;;;;;;14.90;73.70;;;;;;6273424;22;20253;-73
2023/04/16 20:34:17;;;;;;;;;;;14.80;73.40;;;;;;6275661;22;19911;-73
2023/04/16 20:36:44;;;;;;;;;;;14.80;73.50;;;;;;6275779;22;19985;-73
2023/04/16 20:39:11;;;;;;;;;;;14.90;73.20;;;;;;6275396;22;19903;-73
2023/04/16 20:41:42;;;;;;;;;;;14.90;73.80;;;;;;6275306;22;19917;-74
2023/04/16 20:44:16;;;;;;;;;;;14.90;73.80;;;;;;6275897;22;19903;-73
2023/04/16 20:46:48;;;;;;;;;;;14.90;74.60;;;;;;6275479;22;20323;-73
2023/04/16 20:49:16;;;;;;;;;;;14.90;74.50;;;;;;6275897;22;19965;-73
2023/04/16 20:51:43;;;;;;;;;;;14.90;74.50;;;;;;6275279;22;20350;-74
2023/04/16 20:54:09;;;;;;;;;;;14.90;74.60;;;;;;6275057;22;19904;-73
2023/04/16 20:56:36;;;;;;;;;;;14.90;75.00;;;;;;6250595;22;19982;-74
2023/04/16 20:59:03;;;;;;;;;;;14.90;75.20;;;;;;6277901;22;19903;-73
2023/04/16 21:01:30;;;;;;;;;;;15.00;75.10;;;;;;6225439;22;19918;-74
2023/04/16 21:03:56;;;;;;;;;;;15.00;74.70;;;;;;6277486;22;19908;-74
2023/04/16 21:06:23;;;;;;;;;;;15.00;74.60;;;;;;6277410;22;19930;-75
2023/04/16 21:08:50;;;;;;;;;;;15.10;74.00;;;;;;6277627;22;19903;-74
2023/04/16 21:11:16;;;;;;;;;;;15.20;74.30;;;;;;6277439;22;20401;-74
2023/04/16 21:13:43;;;;;;;;;;;15.20;74.30;;;;;;6277555;22;19938;-74
2023/04/16 21:16:11;;;;;;;;;;;15.20;74.10;;;;;;6277345;22;19909;-75
2023/04/16 21:18:38;;;;;;;;;;;15.20;73.80;;;;;;6277634;22;19899;-75
2023/04/16 21:21:04;;;;;;;;;;;15.20;73.80;;;;;;6276913;22;19915;-74
2023/04/16 21:23:31;;;;;;;;;;;15.30;73.40;;;;;;6277669;22;19911;-73
2023/04/16 21:25:58;;;;;;;;;;;15.30;73.70;;;;;;6277556;22;20002;-74
2023/04/16 21:28:24;;;;;;;;;;;15.30;73.70;;;;;;6277311;22;19965;-74
2023/04/16 21:30:51;;;;;;;;;;;15.40;72.80;;;;;;6276990;22;19919;-74
2023/04/16 21:33:18;;;;;;;;;;;15.50;73.10;;;;;;6277746;22;19930;-75
2023/04/16 21:35:49;;;;;;;;;;;15.50;73.00;;;;;;6277421;22;19915;-74
2023/04/16 21:38:16;;;;;;;;;;;15.60;72.90;;;;;;6276514;22;19903;-74
2023/04/16 21:40:44;;;;;;;;;;;15.60;72.90;;;;;;6277085;22;19911;-74
2023/04/16 21:43:11;;;;;;;;;;;15.70;72.30;;;;;;6250498;22;19903;-76
2023/04/16 21:45:38;;;;;;;;;;;15.70;72.90;;;;;;6277461;22;19914;-76
2023/04/16 21:48:05;;;;;;;;;;;15.80;72.60;;;;;;6249608;22;19907;-76
2023/04/16 21:50:32;;;;;;;;;;;15.90;72.60;;;;;;6276865;22;20013;-76
2023/04/16 21:52:58;;;;;;;;;;;15.90;71.80;;;;;;6277512;22;19907;-74
2023/04/16 21:55:25;;;;;;;;;;;15.90;71.70;;;;;;6277796;22;19909;-80
2023/04/16 21:57:52;;;;;;;;;;;16.00;71.60;;;;;;6276842;22;19907;-80
2023/04/16 22:00:19;;;;;;;;;;;16.10;73.10;;;;;;6276806;22;19918;-80
2023/04/16 22:02:46;;;;;;;;;;;16.10;73.30;;;;;;6277339;22;20370;-81
2023/04/16 22:05:13;;;;;;;;;;;16.10;72.90;;;;;;6276638;22;19942;-80
2023/04/16 22:07:40;;;;;;;;;;;16.20;72.90;;;;;;6276125;22;19910;-80
2023/04/16 22:10:07;;;;;;;;;;;16.20;72.60;;;;;;6276216;22;19903;-80
2023/04/16 22:12:38;;;;;;;;;;;16.20;72.70;;;;;;6249715;22;20246;-81
2023/04/16 22:15:06;;;;;;;;;;;16.30;73.20;;;;;;6276205;22;19997;-81
2023/04/16 22:17:36;;;;;;;;;;;16.30;72.80;;;;;;6276477;22;20246;-81
2023/04/16 22:20:07;;;;;;;;;;;16.30;72.70;;;;;;6276801;22;20234;-81
2023/04/16 22:22:34;;;;;;;;;;;16.40;71.60;;;;;;6276797;22;20380;-80
2023/04/16 22:25:02;;;;;;;;;;;16.40;71.60;;;;;;6277216;22;19929;-80
2023/04/16 22:27:28;;;;;;;;;;;16.40;71.60;;;;;;6277032;22;19926;-80
2023/04/16 22:29:55;;;;;;;;;;;16.50;71.40;;;;;;6276319;22;19903;-81
2023/04/16 22:32:22;;;;;;;;;;;16.50;71.50;;;;;;6276706;22;20246;-80
2023/04/16 22:34:49;;;;;;;;;;;16.60;71.60;;;;;;6277381;22;19907;-80
2023/04/16 22:37:16;;;;;;;;;;;16.70;71.50;;;;;;6276610;22;19930;-80
2023/04/16 22:39:42;;;;;;;;;;;16.60;71.30;;;;;;6276309;22;20353;-80
2023/04/16 22:42:09;;;;;;;;;;;16.70;71.80;;;;;;6276551;22;19910;-80
2023/04/16 22:44:36;;;;;;;;;;;16.70;71.80;;;;;;6277061;22;19938;-80
2023/04/16 22:47:03;;;;;;;;;;;16.80;71.60;;;;;;6277131;22;19908;-80
2023/04/16 22:49:33;;;;;;;;;;;16.80;71.20;;;;;;6276919;22;19903;-80
2023/04/16 22:52:00;;;;;;;;;;;16.90;71.10;;;;;;6277352;22;19961;-80
2023/04/16 22:54:30;;;;;;;;;;;16.90;71.10;;;;;;6276889;22;19914;-80
